Time;durP1;ratioP1;P1;durP2;ratioP2;P2;SDS_P1;SDS_P2;PMS_P1;PMS_P2;Temp;Humidity;BMP_temperature;BMP_pressure;BME280_temperature;BME280_humidity;BME280_pressure;Samples;Min_cycle;Max_cycle;Signal;HPM_P1;HPM_P2
2021/04/26 00:01:54;;;;;;;40.13;24.63;;;;;;;2.89;58.80;100388.03;4910197;29;20052;-71
2021/04/26 00:04:20;;;;;;;43.78;23.67;;;;;;;2.92;58.93;100387.88;4910415;29;20048;-70
2021/04/26 00:06:47;;;;;;;46.03;24.10;;;;;;;2.95;59.00;100382.56;4909128;29;20056;-69
2021/04/26 00:09:13;;;;;;;46.35;22.80;;;;;;;2.99;58.72;100387.63;4908026;29;20056;-70
2021/04/26 00:11:40;;;;;;;44.50;19.88;;;;;;;3.03;58.78;100381.34;4909617;29;20040;-72
2021/04/26 00:14:07;;;;;;;39.20;20.33;;;;;;;3.08;58.85;100386.41;4910589;29;20099;-70
2021/04/26 00:16:35;;;;;;;45.60;24.33;;;;;;;3.08;58.94;100386.41;4909600;29;20058;-69
2021/04/26 00:19:03;;;;;;;45.42;22.17;;;;;;;3.05;59.00;100391.75;4909650;29;20044;-72
2021/04/26 00:21:30;;;;;;;36.33;19.75;;;;;;;2.99;59.32;100394.56;4910496;29;20060;-71
2021/04/26 00:23:56;;;;;;;40.30;19.75;;;;;;;2.96;59.51;100400.78;4909905;29;20668;-72
2021/04/26 00:26:23;;;;;;;31.88;16.83;;;;;;;2.94;59.14;100396.53;4911771;29;20209;-70
2021/04/26 00:28:49;;;;;;;39.47;19.08;;;;;;;2.94;59.13;100392.16;4910358;29;20060;-70
2021/04/26 00:31:16;;;;;;;37.20;21.35;;;;;;;2.91;59.36;100386.22;4910194;29;20501;-71
2021/04/26 00:33:43;;;;;;;46.60;24.17;;;;;;;2.86;59.39;100392.47;4910830;29;20183;-70
2021/04/26 00:36:10;;;;;;;45.75;25.30;;;;;;;2.82;59.65;100392.63;4910425;29;20063;-68
2021/04/26 00:38:36;;;;;;;53.35;27.73;;;;;;;2.78;59.47;100389.28;4909528;29;20058;-71
2021/04/26 00:41:03;;;;;;;58.25;29.10;;;;;;;2.74;60.01;100399.88;4909034;29;20461;-71
2021/04/26 00:43:29;;;;;;;63.80;32.42;;;;;;;2.73;60.29;100393.81;4911277;29;20110;-70
2021/04/26 00:45:56;;;;;;;47.20;27.23;;;;;;;2.76;60.34;100400.69;4909645;29;20096;-71
2021/04/26 00:48:23;;;;;;;55.75;28.35;;;;;;;2.86;60.01;100399.41;4909589;29;20080;-70
2021/04/26 00:50:50;;;;;;;61.85;31.02;;;;;;;2.89;59.82;100395.84;4909911;29;20079;-69
2021/04/26 00:53:17;;;;;;;62.95;32.38;;;;;;;2.91;59.71;100399.25;4908987;29;20052;-69
2021/04/26 00:55:44;;;;;;;50.15;28.60;;;;;;;2.88;59.84;100397.59;4909977;29;20052;-69
2021/04/26 00:58:10;;;;;;;51.20;29.13;;;;;;;2.83;60.13;100396.94;4910389;29;20169;-70
2021/04/26 01:00:37;;;;;;;43.63;23.55;;;;;;;2.82;60.06;100403.91;4909194;29;20103;-70
2021/04/26 01:03:04;;;;;;;42.53;21.50;;;;;;;2.83;60.21;100403.00;4910658;29;20114;-69
2021/04/26 01:05:34;;;;;;;36.95;18.55;;;;;;;2.85;60.09;100397.72;4911222;29;20048;-71
2021/04/26 01:08:02;;;;;;;26.17;17.77;;;;;;;2.87;60.33;100398.53;4910069;29;20433;-71
2021/04/26 01:10:31;;;;;;;25.48;15.77;;;;;;;2.88;60.57;100394.97;4908642;29;20410;-70
2021/04/26 01:13:20;;;;;;;24.05;16.67;;;;;;;2.88;61.03;100400.19;4910127;29;20048;-69
2021/04/26 01:15:55;;;;;;;28.33;17.83;;;;;;;2.92;61.44;100396.59;4909882;29;20426;-72
2021/04/26 01:18:26;;;;;;;30.35;17.95;;;;;;;2.89;61.50;100399.31;4909737;29;20056;-71
2021/04/26 01:21:08;;;;;;;27.38;17.00;;;;;;;2.82;61.44;100390.84;4909405;29;20103;-71
2021/04/26 01:24:14;;;;;;;27.63;15.77;;;;;;;2.81;61.86;100391.78;4910529;29;20071;-71
2021/04/26 01:26:59;;;;;;;26.60;15.30;;;;;;;2.86;61.21;100391.59;4910053;29;20067;-69
2021/04/26 01:29:36;;;;;;;26.63;16.00;;;;;;;2.86;61.48;100396.81;4913165;29;20072;-70
2021/04/26 01:32:18;;;;;;;22.88;15.07;;;;;;;2.87;61.79;100385.47;4910303;29;20062;-69
2021/04/26 01:34:46;;;;;;;28.88;14.55;;;;;;;2.92;61.49;100393.09;4909816;29;20052;-70
2021/04/26 01:37:14;;;;;;;22.02;13.45;;;;;;;2.88;61.59;100389.75;4909704;29;20063;-69
2021/04/26 01:39:42;;;;;;;25.55;14.55;;;;;;;2.86;61.58;100389.84;4908591;29;20052;-71
2021/04/26 01:42:11;;;;;;;29.52;16.13;;;;;;;2.89;61.49;100388.03;4911585;29;20052;-71
2021/04/26 01:44:37;;;;;;;22.75;12.68;;;;;;;2.87;61.02;100388.09;4909268;29;20051;-71
2021/04/26 01:47:07;;;;;;;20.20;11.07;;;;;;;2.93;60.93;100387.84;4909818;29;20052;-71
2021/04/26 01:49:35;;;;;;;20.98;9.93;;;;;;;2.94;60.64;100384.34;4909573;29;20074;-68
2021/04/26 01:52:07;;;;;;;24.48;13.82;;;;;;;2.93;60.47;100381.78;4908758;29;20055;-71
2021/04/26 01:54:34;;;;;;;24.15;13.05;;;;;;;2.95;61.18;100386.00;4910180;29;20048;-71
2021/04/26 01:57:01;;;;;;;17.33;11.48;;;;;;;2.95;61.75;100390.38;4909905;29;20111;-70
2021/04/26 01:59:29;;;;;;;16.95;11.63;;;;;;;2.95;62.15;100387.78;4909441;29;20067;-70
2021/04/26 02:01:57;;;;;;;22.25;13.27;;;;;;;2.99;62.29;100386.75;4910235;29;20054;-70
2021/04/26 02:04:26;;;;;;;21.00;12.95;;;;;;;3.03;62.63;100390.94;4916260;29;20055;-71
2021/04/26 02:06:55;;;;;;;17.83;11.65;;;;;;;2.99;62.95;100390.22;4914480;29;20658;-72
2021/04/26 02:09:21;;;;;;;18.05;12.52;;;;;;;2.94;63.62;100386.09;4911419;29;20056;-71
2021/04/26 02:11:49;;;;;;;18.95;13.63;;;;;;;2.88;63.87;100381.94;4912443;29;20052;-71
2021/04/26 02:14:16;;;;;;;14.55;8.95;;;;;;;2.86;63.97;100370.72;4912429;29;20048;-71
2021/04/26 02:16:44;;;;;;;17.90;8.55;;;;;;;2.89;63.19;100369.78;4913675;29;20112;-71
2021/04/26 02:19:11;;;;;;;17.80;9.43;;;;;;;2.94;63.21;100362.63;4911834;29;20048;-70
2021/04/26 02:21:39;;;;;;;18.33;9.88;;;;;;;3.04;62.71;100363.94;4912718;29;20869;-71
2021/04/26 02:24:08;;;;;;;16.00;11.55;;;;;;;3.02;63.02;100384.03;4912597;29;20146;-70
2021/04/26 02:26:34;;;;;;;12.90;7.68;;;;;;;3.10;62.48;100375.88;4912324;29;20052;-70
2021/04/26 02:29:01;;;;;;;14.60;8.85;;;;;;;3.19;62.38;100373.78;4912311;29;20068;-70
2021/04/26 02:31:32;;;;;;;15.55;8.93;;;;;;;3.19;62.77;100368.56;4912701;29;20052;-70
2021/04/26 02:34:04;;;;;;;13.45;8.18;;;;;;;3.23;62.93;100367.50;4912210;29;20070;-72
2021/04/26 02:36:37;;;;;;;10.20;6.80;;;;;;;3.28;62.64;100363.84;4913118;29;20060;-71
2021/04/26 02:39:07;;;;;;;13.93;8.90;;;;;;;3.30;62.58;100362.91;4913238;29;20056;-70
2021/04/26 02:41:39;;;;;;;14.23;8.43;;;;;;;3.24;62.92;100366.63;4912132;29;20055;-70
2021/04/26 02:44:14;;;;;;;13.13;8.35;;;;;;;3.31;63.01;100368.97;4912617;29;20137;-70
2021/04/26 02:46:41;;;;;;;;;;;;;;;3.54;62.06;100368.88;4915052;29;20122;-71
2021/04/26 02:49:09;;;;;;;14.73;8.18;;;;;;;3.44;62.05;100365.81;4912585;29;19930;-70
2021/04/26 02:51:36;;;;;;;12.95;7.13;;;;;;;3.51;61.91;100366.41;4913617;29;20120;-71
2021/04/26 02:54:03;;;;;;;14.00;7.38;;;;;;;3.60;61.80;100363.41;4913193;29;20056;-70
2021/04/26 02:56:36;;;;;;;15.35;7.00;;;;;;;3.65;61.80;100360.59;4917352;29;20052;-71
2021/04/26 02:59:03;;;;;;;10.95;5.88;;;;;;;3.70;61.58;100361.25;4923662;29;20117;-72
2021/04/26 03:01:30;;;;;;;10.65;6.30;;;;;;;3.71;61.53;100354.25;4916293;29;20054;-72
2021/04/26 03:03:58;;;;;;;14.60;7.55;;;;;;;3.80;61.14;100357.34;4928061;29;20048;-71
2021/04/26 03:06:25;;;;;;;13.70;7.75;;;;;;;3.85;61.32;100361.50;4929092;29;20084;-71
2021/04/26 03:08:52;;;;;;;13.45;6.43;;;;;;;3.79;61.14;100353.00;4928545;29;20107;-72
2021/04/26 03:11:19;;;;;;;10.57;6.75;;;;;;;3.62;61.79;100358.97;4923529;29;20060;-72
2021/04/26 03:13:48;;;;;;;11.82;4.72;;;;;;;3.42;62.63;100361.53;4927088;29;20052;-71
2021/04/26 03:16:15;;;;;;;9.68;5.35;;;;;;;3.29;62.92;100363.81;4925703;29;20079;-71
2021/04/26 03:18:43;;;;;;;7.10;5.00;;;;;;;3.18;63.84;100361.63;4921090;29;20054;-70
2021/04/26 03:21:10;;;;;;;13.90;5.38;;;;;;;3.11;64.12;100365.38;4914658;29;20044;-72
2021/04/26 03:23:38;;;;;;;12.18;5.20;;;;;;;3.10;63.54;100363.72;4914601;29;20055;-71
2021/04/26 03:26:06;;;;;;;6.57;3.85;;;;;;;3.09;63.21;100340.28;4915281;29;20052;-70
2021/04/26 03:28:35;;;;;;;7.20;4.38;;;;;;;3.03;63.18;100344.81;4915630;29;20052;-73
2021/04/26 03:31:04;;;;;;;10.10;6.05;;;;;;;3.03;62.92;100351.81;4915836;29;20062;-74
2021/04/26 03:33:32;;;;;;;16.00;7.03;;;;;;;3.03;62.73;100357.03;4916011;29;20124;-71
2021/04/26 03:35:58;;;;;;;13.73;8.50;;;;;;;3.04;62.82;100353.50;4914606;29;20052;-71
2021/04/26 03:38:25;;;;;;;29.10;13.45;;;;;;;3.02;62.80;100355.31;4912454;29;20052;-70
2021/04/26 03:40:52;;;;;;;25.50;12.93;;;;;;;2.96;62.44;100356.41;4910729;29;20067;-71
2021/04/26 03:43:18;;;;;;;20.80;12.15;;;;;;;2.87;62.45;100367.22;4911848;29;20048;-70
2021/04/26 03:45:45;;;;;;;23.15;13.18;;;;;;;2.77;62.80;100364.09;4911778;29;20048;-71
2021/04/26 03:48:13;;;;;;;22.13;12.65;;;;;;;2.73;62.85;100357.31;4911926;29;20620;-70
2021/04/26 03:50:39;;;;;;;17.20;10.77;;;;;;;2.67;62.81;100360.16;4911183;29;20056;-71
2021/04/26 03:53:06;;;;;;;17.60;9.98;;;;;;;2.66;62.51;100358.44;4910460;29;20052;-68
2021/04/26 03:55:32;;;;;;;21.27;11.73;;;;;;;2.64;62.67;100365.47;4911096;29;20135;-67
2021/04/26 03:57:59;;;;;;;21.90;11.57;;;;;;;2.53;63.03;100371.09;4909265;29;20058;-68
2021/04/26 04:00:25;;;;;;;23.90;12.77;;;;;;;2.46;63.06;100367.88;4909275;29;20048;-69
2021/04/26 04:02:52;;;;;;;22.35;15.13;;;;;;;2.56;63.04;100371.00;4910497;29;20056;-71
2021/04/26 04:05:19;;;;;;;26.65;16.33;;;;;;;2.58;63.14;100373.56;4910013;29;20056;-68
2021/04/26 04:07:46;;;;;;;32.55;19.30;;;;;;;2.64;63.30;100376.75;4909675;29;20083;-71
2021/04/26 04:10:14;;;;;;;24.42;14.05;;;;;;;2.63;63.90;100374.22;4908445;29;20069;-70
2021/04/26 04:12:41;;;;;;;22.73;14.38;;;;;;;2.73;63.84;100383.38;4909617;29;20063;-70
2021/04/26 04:15:10;;;;;;;20.30;13.52;;;;;;;3.13;63.62;100374.00;4910635;29;20056;-70
2021/04/26 04:17:38;;;;;;;16.38;10.32;;;;;;;3.88;61.92;100371.84;4914875;29;20048;-70
2021/04/26 04:20:06;;;;;;;12.35;10.02;;;;;;;4.34;60.33;100378.50;4909264;29;20060;-69
2021/04/26 04:22:34;;;;;;;18.35;12.73;;;;;;;4.84;59.02;100382.34;4909855;29;20116;-72
2021/04/26 04:25:00;;;;;;;24.08;13.25;;;;;;;5.26;57.29;100383.03;4909990;29;20059;-72
2021/04/26 04:27:27;;;;;;;20.85;14.18;;;;;;;5.80;56.06;100375.09;4910020;29;20107;-72
2021/04/26 04:29:53;;;;;;;22.10;12.05;;;;;;;6.16;54.93;100385.53;4909697;29;20068;-74
2021/04/26 04:32:20;;;;;;;19.27;10.93;;;;;;;6.62;53.82;100379.59;4909843;29;20060;-74
2021/04/26 04:34:46;;;;;;;19.38;12.80;;;;;;;7.12;53.07;100383.84;4909415;29;20115;-68
2021/04/26 04:37:13;;;;;;;24.98;15.02;;;;;;;7.49;51.97;100370.41;4909776;29;20078;-77
2021/04/26 04:39:40;;;;;;;21.00;13.43;;;;;;;7.93;50.52;100375.69;4909742;29;20110;-68
2021/04/26 04:42:06;;;;;;;19.85;11.70;;;;;;;7.94;49.97;100373.88;4908959;29;20052;-71
2021/04/26 04:44:33;;;;;;;17.58;10.15;;;;;;;7.97;49.59;100382.44;4910352;29;20056;-71
2021/04/26 04:46:59;;;;;;;17.58;9.13;;;;;;;8.26;49.01;100386.91;4910458;29;20424;-69
2021/04/26 04:49:26;;;;;;;13.90;8.07;;;;;;;8.54;48.22;100386.09;4907516;29;20059;-69
2021/04/26 04:51:53;;;;;;;18.65;9.00;;;;;;;8.82;47.59;100385.19;4909899;29;20062;-72
2021/04/26 04:54:19;;;;;;;13.77;8.75;;;;;;;9.04;46.63;100386.47;4909425;29;20630;-73
2021/04/26 04:56:47;;;;;;;13.02;7.43;;;;;;;8.94;46.10;100381.78;4911712;29;20058;-72
2021/04/26 04:59:13;;;;;;;21.27;9.93;;;;;;;8.99;46.03;100382.34;4909750;29;20441;-77
2021/04/26 05:01:40;;;;;;;14.75;7.82;;;;;;;8.81;46.30;100386.16;4909261;29;20052;-74
2021/04/26 05:04:06;;;;;;;15.80;8.35;;;;;;;8.49;46.58;100381.09;4907394;29;20056;-72
2021/04/26 05:06:33;;;;;;;17.10;9.55;;;;;;;8.15;47.22;100385.75;4908572;29;20682;-68
2021/04/26 05:08:59;;;;;;;14.40;8.93;;;;;;;7.60;48.24;100383.78;4906932;29;20060;-67
2021/04/26 05:11:26;;;;;;;11.15;6.70;;;;;;;6.87;49.77;100379.09;4905264;29;20139;-66
2021/04/26 05:13:53;;;;;;;15.57;7.95;;;;;;;6.29;51.07;100377.84;4911382;29;20052;-69
2021/04/26 05:16:19;;;;;;;13.40;6.57;;;;;;;6.27;51.68;100380.56;4906700;29;20520;-67
2021/04/26 05:18:46;;;;;;;11.50;6.28;;;;;;;6.49;51.43;100387.28;4906691;29;20056;-67
2021/04/26 05:21:12;;;;;;;12.68;8.90;;;;;;;6.63;51.31;100387.41;4907221;29;20060;-68
2021/04/26 05:23:38;;;;;;;16.33;7.93;;;;;;;6.81;51.08;100385.56;4907901;29;20091;-66
2021/04/26 05:26:07;;;;;;;15.45;7.95;;;;;;;7.04;50.10;100396.53;4905423;29;20060;-68
2021/04/26 05:28:33;;;;;;;12.57;7.60;;;;;;;7.28;49.28;100395.19;4908048;29;20083;-67
2021/04/26 05:31:01;;;;;;;13.07;6.50;;;;;;;7.49;48.55;100401.94;4905141;29;20070;-67
2021/04/26 05:33:27;;;;;;;12.70;6.78;;;;;;;7.80;47.92;100401.03;4906578;29;20048;-68
2021/04/26 05:35:54;;;;;;;10.82;8.35;;;;;;;7.46;47.95;100402.97;4904915;29;20863;-69
2021/04/26 05:38:20;;;;;;;11.90;6.60;;;;;;;7.25;48.97;100415.53;4901484;29;20610;-69
2021/04/26 05:40:48;;;;;;;11.65;7.45;;;;;;;6.60;50.72;100413.78;4901626;29;20193;-68
2021/04/26 05:43:16;;;;;;;12.65;6.68;;;;;;;6.21;51.84;100415.00;4902065;29;20048;-69
2021/04/26 05:45:43;;;;;;;9.60;5.30;;;;;;;5.92;52.53;100419.03;4900427;29;20056;-69
2021/04/26 05:48:11;;;;;;;10.13;6.75;;;;;;;5.58;53.10;100417.25;4901626;29;20052;-68
2021/04/26 05:50:37;;;;;;;12.25;8.20;;;;;;;5.39;53.74;100423.41;4901615;29;20056;-70
2021/04/26 05:53:04;;;;;;;15.85;7.68;;;;;;;5.23;54.36;100422.44;4899694;29;20045;-69
2021/04/26 05:55:31;;;;;;;9.30;6.45;;;;;;;5.18;54.36;100425.25;4901397;29;20436;-67
2021/04/26 05:57:58;;;;;;;10.65;6.28;;;;;;;5.10;54.31;100424.78;4901951;29;20421;-67
2021/04/26 06:00:24;;;;;;;8.55;5.50;;;;;;;5.09;53.81;100433.56;4898870;29;20053;-69
2021/04/26 06:02:51;;;;;;;9.38;6.63;;;;;;;5.05;53.80;100435.47;4899950;29;20071;-65
2021/04/26 06:05:18;;;;;;;6.43;4.45;;;;;;;5.08;53.58;100440.56;4900257;29;20056;-67
2021/04/26 06:07:45;;;;;;;10.43;4.82;;;;;;;5.03;53.37;100442.53;4901141;29;20147;-66
2021/04/26 06:10:12;;;;;;;11.65;5.05;;;;;;;5.01;53.56;100443.56;4900568;29;20055;-67
2021/04/26 06:12:39;;;;;;;8.20;4.70;;;;;;;5.00;53.84;100442.69;4902266;29;20052;-67
2021/04/26 06:15:07;;;;;;;9.52;6.40;;;;;;;4.93;53.91;100439.53;4900084;29;20048;-68
2021/04/26 06:17:33;;;;;;;6.75;4.07;;;;;;;5.00;54.31;100440.06;4902268;29;20059;-67
2021/04/26 06:20:01;;;;;;;6.32;3.88;;;;;;;4.94;53.07;100437.75;4903149;29;20134;-67
2021/04/26 06:22:28;;;;;;;6.13;4.28;;;;;;;4.97;53.57;100443.69;4905776;29;20188;-70
2021/04/26 06:24:55;;;;;;;4.15;3.00;;;;;;;4.95;53.73;100436.81;4907410;29;20080;-69
2021/04/26 06:27:21;;;;;;;7.15;4.70;;;;;;;4.95;54.20;100436.81;4905530;29;20048;-66
2021/04/26 06:29:48;;;;;;;8.35;5.93;;;;;;;5.04;54.15;100440.78;4902718;29;20139;-66
2021/04/26 06:32:15;;;;;;;8.82;3.38;;;;;;;5.14;53.92;100434.19;4903006;29;20044;-69
2021/04/26 06:34:41;;;;;;;6.32;3.65;;;;;;;5.14;53.92;100439.44;4910725;29;20132;-74
2021/04/26 06:37:08;;;;;;;6.97;3.85;;;;;;;5.17;54.05;100432.28;4908293;29;20052;-68
2021/04/26 06:39:35;;;;;;;6.53;3.88;;;;;;;5.19;52.44;100436.59;4900212;29;20193;-65
2021/04/26 06:42:02;;;;;;;7.78;3.85;;;;;;;5.19;52.34;100434.00;4901129;29;20060;-67
2021/04/26 06:44:28;;;;;;;6.65;3.30;;;;;;;5.25;52.61;100437.16;4902428;29;20048;-66
2021/04/26 06:46:55;;;;;;;5.40;4.00;;;;;;;5.32;51.33;100442.94;4902645;29;20056;-66
2021/04/26 06:49:21;;;;;;;7.50;4.78;;;;;;;5.59;51.59;100437.31;4898410;29;20056;-67
2021/04/26 06:51:48;;;;;;;6.63;4.53;;;;;;;5.77;50.97;100436.38;4901014;29;20104;-68
2021/04/26 06:54:14;;;;;;;8.90;5.15;;;;;;;5.92;51.15;100435.63;4902862;29;20051;-67
2021/04/26 06:56:42;;;;;;;7.72;4.38;;;;;;;6.16;50.68;100437.97;4902849;29;20056;-66
2021/04/26 06:59:09;;;;;;;5.47;3.47;;;;;;;6.27;48.76;100430.38;4902324;29;20589;-66
2021/04/26 07:01:35;;;;;;;5.15;3.63;;;;;;;6.39;48.89;100435.91;4904380;29;20092;-66
2021/04/26 07:04:03;;;;;;;6.35;3.25;;;;;;;6.40;48.46;100432.38;4902412;29;20052;-66
2021/04/26 07:06:29;;;;;;;4.93;3.28;;;;;;;6.62;48.29;100432.94;4904641;29;20056;-67
2021/04/26 07:08:56;;;;;;;5.95;3.95;;;;;;;6.93;47.89;100431.28;4907774;29;20052;-67
2021/04/26 07:11:22;;;;;;;6.75;4.05;;;;;;;7.12;46.99;100428.50;4904560;29;20115;-66
2021/04/26 07:13:49;;;;;;;9.43;4.55;;;;;;;6.91;47.36;100438.41;4907660;29;20052;-68
2021/04/26 07:16:16;;;;;;;5.63;3.97;;;;;;;6.70;47.16;100446.50;4871547;29;20058;-67
2021/04/26 07:18:44;;;;;;;7.22;4.50;;;;;;;6.49;46.42;100445.84;4903302;29;20052;-67
2021/04/26 07:21:10;;;;;;;6.97;4.18;;;;;;;6.54;46.53;100445.63;4906709;29;20394;-69
2021/04/26 07:23:37;;;;;;;6.38;4.10;;;;;;;6.92;46.19;100437.47;4903948;29;20636;-67
2021/04/26 07:26:04;;;;;;;7.30;4.93;;;;;;;7.28;45.66;100439.84;4903878;29;20052;-65
2021/04/26 07:28:31;;;;;;;6.45;4.00;;;;;;;7.39;45.38;100436.63;4904253;29;20119;-65
2021/04/26 07:30:58;;;;;;;7.63;4.78;;;;;;;7.65;45.04;100437.78;4902076;29;20504;-67
2021/04/26 07:33:25;;;;;;;6.03;4.45;;;;;;;7.43;44.96;100434.66;4901976;29;20058;-67
2021/04/26 07:35:51;;;;;;;6.57;4.55;;;;;;;7.28;44.91;100436.38;4903570;29;20052;-67
2021/04/26 07:38:17;;;;;;;6.43;4.40;;;;;;;7.28;43.11;100439.00;4901462;29;20051;-66
2021/04/26 07:40:44;;;;;;;8.88;4.57;;;;;;;7.24;43.37;100435.72;4900125;29;20063;-67
2021/04/26 07:43:12;;;;;;;8.10;4.30;;;;;;;7.22;43.18;100439.34;4903684;29;20358;-66
2021/04/26 07:45:39;;;;;;;8.10;4.50;;;;;;;7.30;43.26;100434.50;4904457;29;20055;-70
2021/04/26 07:48:07;;;;;;;7.75;5.00;;;;;;;7.50;43.66;100429.91;4903244;29;20048;-66
2021/04/26 07:50:34;;;;;;;4.10;3.15;;;;;;;7.57;42.73;100429.47;4901744;29;20056;-66
2021/04/26 07:53:00;;;;;;;6.05;2.92;;;;;;;7.40;42.27;100430.44;4902433;29;20722;-67
2021/04/26 07:55:27;;;;;;;5.45;3.97;;;;;;;7.19;42.65;100432.47;4906472;29;20102;-67
2021/04/26 07:57:53;;;;;;;5.28;3.95;;;;;;;7.39;42.79;100427.91;4905468;29;20044;-68
2021/04/26 08:00:21;;;;;;;8.07;4.13;;;;;;;7.47;42.89;100420.41;4903633;29;20052;-66
2021/04/26 08:02:47;;;;;;;7.97;4.15;;;;;;;7.44;42.51;100416.19;4868583;29;20052;-64
2021/04/26 08:05:16;;;;;;;5.10;3.95;;;;;;;7.64;42.63;100422.09;4904622;29;20056;-66
2021/04/26 08:07:42;;;;;;;6.78;3.33;;;;;;;7.79;42.53;100426.44;4902276;29;20075;-65
2021/04/26 08:10:10;;;;;;;4.88;2.47;;;;;;;8.10;40.96;100416.75;4907324;29;20384;-67
2021/04/26 08:12:37;;;;;;;5.15;3.08;;;;;;;8.30;38.63;100419.97;4919333;29;20275;-67
2021/04/26 08:15:05;;;;;;;4.00;3.30;;;;;;;8.45;38.43;100416.47;4916961;29;20032;-66
2021/04/26 08:17:31;;;;;;;6.70;3.45;;;;;;;8.59;39.29;100423.53;4920197;29;20054;-67
2021/04/26 08:19:59;;;;;;;5.05;3.25;;;;;;;8.69;38.46;100411.47;4918249;29;20036;-67
2021/04/26 08:22:27;;;;;;;4.40;2.63;;;;;;;8.76;38.28;100414.56;4881569;29;20131;-66
2021/04/26 08:24:53;;;;;;;3.97;2.83;;;;;;;8.43;36.28;100413.06;4917704;29;20055;-67
2021/04/26 08:27:20;;;;;;;4.60;2.47;;;;;;;8.04;36.33;100411.88;4899972;29;20050;-67
2021/04/26 08:29:46;;;;;;;3.40;2.20;;;;;;;7.79;37.51;100409.84;4912189;29;20059;-66
2021/04/26 08:32:13;;;;;;;3.65;2.08;;;;;;;7.60;37.16;100416.16;4911001;29;20087;-64
2021/04/26 08:34:39;;;;;;;2.92;1.67;;;;;;;7.64;38.38;100411.56;4906527;29;20086;-65
2021/04/26 08:37:06;;;;;;;4.63;1.90;;;;;;;8.11;37.76;100405.31;4908371;29;20127;-65
2021/04/26 08:39:33;;;;;;;1.52;1.17;;;;;;;8.58;35.55;100398.97;4913022;29;20127;-65
2021/04/26 08:42:00;;;;;;;2.05;1.05;;;;;;;9.28;34.69;100395.44;4915921;29;20135;-69
2021/04/26 08:44:26;;;;;;;1.17;0.95;;;;;;;9.51;31.66;100399.22;4914275;29;20101;-67
2021/04/26 08:46:54;;;;;;;4.15;2.05;;;;;;;9.38;34.33;100396.53;4910088;29;20056;-69
2021/04/26 08:49:20;;;;;;;2.67;1.90;;;;;;;9.00;34.84;100404.25;4906591;29;20402;-65
2021/04/26 08:51:47;;;;;;;3.15;1.60;;;;;;;8.94;35.90;100399.41;4907155;29;20052;-65
2021/04/26 08:54:15;;;;;;;4.47;2.42;;;;;;;8.86;35.04;100391.13;4909146;29;20052;-66
2021/04/26 08:56:43;;;;;;;3.97;2.10;;;;;;;9.07;33.19;100399.44;4906728;29;20052;-66
2021/04/26 08:59:10;;;;;;;3.38;2.10;;;;;;;9.09;32.10;100397.56;4903575;29;20067;-64
2021/04/26 09:01:36;;;;;;;5.53;2.38;;;;;;;8.84;32.25;100387.75;4903653;29;20056;-66
2021/04/26 09:04:08;;;;;;;2.70;1.35;;;;;;;8.84;32.88;100396.50;4905985;29;20054;-67
2021/04/26 09:06:59;;;;;;;3.75;2.03;;;;;;;8.83;33.91;100388.69;4905666;29;20667;-66
2021/04/26 09:09:40;;;;;;;3.30;2.08;;;;;;;8.91;33.78;100395.19;4902959;29;20060;-64
2021/04/26 09:12:10;;;;;;;4.05;1.98;;;;;;;8.87;34.08;100400.72;4900803;29;20158;-67
2021/04/26 09:14:39;;;;;;;6.78;3.17;;;;;;;9.06;33.03;100392.50;4901476;29;20155;-64
2021/04/26 09:17:35;;;;;;;1.90;1.60;;;;;;;8.91;31.65;100394.31;4900926;29;20076;-67
2021/04/26 09:20:20;;;;;;;;;;;;;;;8.93;32.49;100390.66;4843220;29;20079;-64
2021/04/26 09:22:48;;;;;;;5.65;2.92;;;;;;;8.69;33.63;100394.81;4841314;29;19924;-64
2021/04/26 09:25:33;;;;;;;5.15;3.45;;;;;;;8.60;35.59;100393.59;4840828;29;20140;-64
2021/04/26 09:28:05;;;;;;;2.63;1.60;;;;;;;8.51;36.00;100402.91;4843332;29;20835;-67
2021/04/26 09:30:50;;;;;;;5.55;2.67;;;;;;;8.89;35.59;100393.56;4839807;29;20121;-65
2021/04/26 09:33:26;;;;;;;5.95;2.90;;;;;;;9.06;34.73;100387.25;4841132;29;20046;-71
2021/04/26 09:36:15;;;;;;;6.60;2.95;;;;;;;9.25;32.59;100382.44;4841195;29;20713;-65
2021/04/26 09:38:44;;;;;;;4.13;2.05;;;;;;;8.99;32.00;100392.88;4786551;29;20142;-67
2021/04/26 09:41:22;;;;;;;3.45;2.08;;;;;;;8.78;32.91;100395.06;4784849;29;20058;-66
2021/04/26 09:44:06;;;;;;;2.78;1.25;;;;;;;8.67;34.14;100394.91;4785949;29;20054;-69
2021/04/26 09:46:39;;;;;;;6.07;2.60;;;;;;;8.64;34.46;100394.25;4785883;29;20497;-67
2021/04/26 09:49:09;;;;;;;5.20;2.58;;;;;;;8.35;35.07;100395.06;4785993;29;20134;-66
2021/04/26 09:51:36;;;;;;;4.85;2.88;;;;;;;8.17;35.80;100396.19;4785222;29;20144;-65
2021/04/26 09:54:03;;;;;;;4.25;2.20;;;;;;;8.07;34.96;100403.81;4786820;29;20051;-66
2021/04/26 09:56:33;;;;;;;5.65;1.80;;;;;;;7.85;34.10;100406.88;4846343;29;20082;-66
2021/04/26 09:59:02;;;;;;;2.65;1.40;;;;;;;7.66;32.72;100401.81;4860339;29;20049;-67
2021/04/26 10:01:29;;;;;;;2.63;1.38;;;;;;;7.64;34.54;100401.91;4860899;29;20110;-64
2021/04/26 10:03:57;;;;;;;4.88;2.70;;;;;;;7.69;35.69;100406.03;4861661;29;20049;-65
2021/04/26 10:06:25;;;;;;;2.30;1.13;;;;;;;7.76;34.96;100405.63;4861012;29;20139;-66
2021/04/26 10:08:52;;;;;;;4.43;1.00;;;;;;;7.82;34.40;100410.50;4859730;29;20080;-65
2021/04/26 10:11:20;;;;;;;2.17;1.25;;;;;;;7.90;34.14;100403.94;4860981;29;20739;-66
2021/04/26 10:13:49;;;;;;;3.33;1.08;;;;;;;8.04;34.45;100402.19;4860565;29;20045;-67
2021/04/26 10:16:23;;;;;;;2.03;1.20;;;;;;;8.71;34.19;100398.19;4891656;29;20044;-68
2021/04/26 10:18:50;;;;;;;12.45;4.85;;;;;;;9.77;32.67;100389.56;4903714;29;20054;-67
2021/04/26 10:21:32;;;;;;;4.07;2.15;;;;;;;10.52;32.12;100386.25;4900366;29;20054;-67
2021/04/26 10:24:11;;;;;;;4.30;2.30;;;;;;;11.18;31.04;100377.19;4902567;29;20636;-66
2021/04/26 10:26:41;;;;;;;2.67;1.60;;;;;;;12.15;30.41;100369.97;4906360;29;20139;-70
2021/04/26 10:29:12;;;;;;;2.22;1.63;;;;;;;12.91;29.74;100367.53;4906605;29;20786;-66
2021/04/26 10:32:17;;;;;;;4.60;2.45;;;;;;;13.75;29.32;100355.31;4906356;29;20478;-69
2021/04/26 10:35:13;;;;;;;5.68;4.15;;;;;;;14.23;29.23;100348.59;4904043;29;20059;-67
2021/04/26 10:37:40;;;;;;;4.25;2.30;;;;;;;13.79;29.28;100345.25;4907239;29;20048;-65
2021/04/26 10:40:14;;;;;;;5.68;2.85;;;;;;;13.77;28.98;100340.09;4903340;29;20062;-68
2021/04/26 10:42:42;;;;;;;6.50;2.58;;;;;;;12.93;29.52;100342.59;4906389;29;20055;-65
2021/04/26 10:45:27;;;;;;;3.45;2.08;;;;;;;12.69;30.58;100350.69;4909672;29;20048;-66
2021/04/26 10:48:12;;;;;;;4.22;2.47;;;;;;;12.76;30.55;100345.75;4911744;29;20052;-69
2021/04/26 10:50:44;;;;;;;4.82;2.90;;;;;;;12.67;30.29;100342.03;4900764;29;20052;-67
2021/04/26 10:53:12;;;;;;;2.38;1.48;;;;;;;12.21;29.58;100340.38;4904223;29;20052;-68
2021/04/26 10:55:50;;;;;;;3.95;2.38;;;;;;;12.30;28.75;100337.00;4904733;29;20063;-66
2021/04/26 10:58:33;;;;;;;6.60;2.67;;;;;;;12.04;29.07;100334.56;4905194;29;20056;-66
2021/04/26 11:01:01;;;;;;;4.60;3.05;;;;;;;11.15;27.71;100330.69;4904704;29;20083;-65
2021/04/26 11:03:35;;;;;;;3.83;1.85;;;;;;;10.50;28.14;100339.78;4902855;29;20624;-67
2021/04/26 11:06:21;;;;;;;5.20;2.08;;;;;;;10.29;28.71;100334.19;4903329;29;20056;-71
2021/04/26 11:08:52;;;;;;;8.20;3.70;;;;;;;10.13;28.98;100335.22;4905061;29;20123;-67
2021/04/26 11:11:20;;;;;;;4.43;1.88;;;;;;;10.02;29.14;100329.84;4902242;29;20059;-66
2021/04/26 11:13:54;;;;;;;3.63;2.03;;;;;;;9.96;29.32;100332.94;4903654;29;20821;-67
2021/04/26 11:16:27;;;;;;;2.42;1.70;;;;;;;9.82;29.07;100339.13;4901805;29;20083;-68
2021/04/26 11:19:08;;;;;;;3.05;1.60;;;;;;;9.70;29.34;100332.88;4902562;29;20064;-67
2021/04/26 11:22:03;;;;;;;4.32;1.73;;;;;;;9.82;28.73;100328.59;4901399;29;20067;-67
2021/04/26 11:25:04;;;;;;;3.65;1.73;;;;;;;10.13;29.10;100331.75;4842287;29;20178;-67
2021/04/26 11:27:35;;;;;;;4.78;1.85;;;;;;;10.83;28.76;100322.47;4841747;29;20194;-66
2021/04/26 11:30:14;;;;;;;6.93;3.20;;;;;;;11.50;28.31;100315.78;4843012;29;20094;-66
2021/04/26 11:33:20;;;;;;;3.38;1.80;;;;;;;11.29;28.61;100314.63;4842304;29;20060;-66
2021/04/26 11:36:16;;;;;;;17.00;7.00;;;;;;;11.35;27.61;100304.56;4842112;29;20057;-66
2021/04/26 11:38:46;;;;;;;;;;;;;;;11.25;27.16;100299.97;4789121;29;20065;-70